Time;durP1;ratioP1;P1;durP2;ratioP2;P2;SDS_P1;SDS_P2;PMS_P1;PMS_P2;Temp;Humidity;BMP_temperature;BMP_pressure;BME280_temperature;BME280_humidity;BME280_pressure;Samples;Min_cycle;Max_cycle;Signal;HPM_P1;HPM_P2
2021/08/29 00:01:05;;;;;;;1.65;1.08;;;;;;;20.22;58.74;102107.13;5075616;28;20032;-66
2021/08/29 00:03:30;;;;;;;2.80;1.20;;;;;;;20.23;59.03;102098.78;5093953;28;20023;-66
2021/08/29 00:05:55;;;;;;;3.95;1.70;;;;;;;20.23;58.72;102097.94;5093945;28;20028;-67
2021/08/29 00:08:21;;;;;;;2.03;1.20;;;;;;;20.14;58.90;102100.56;5094044;28;20031;-67
2021/08/29 00:10:46;;;;;;;1.80;0.90;;;;;;;20.14;58.87;102107.88;5093894;28;20026;-66
2021/08/29 00:13:11;;;;;;;3.17;1.33;;;;;;;20.14;59.18;102100.56;5098721;28;20020;-66
2021/08/29 00:15:43;;;;;;;3.28;1.40;;;;;;;20.17;58.25;102098.56;5093843;28;20364;-67
2021/08/29 00:18:09;;;;;;;2.30;1.17;;;;;;;20.11;59.63;102100.88;5093637;28;20115;-66
2021/08/29 00:20:35;;;;;;;3.05;1.02;;;;;;;20.17;59.27;102106.75;5093790;28;20027;-66
2021/08/29 00:23:01;;;;;;;4.18;1.30;;;;;;;20.05;58.45;102104.22;5093529;28;20043;-67
2021/08/29 00:25:28;;;;;;;3.80;1.30;;;;;;;20.14;58.38;102106.00;5098450;28;20457;-66
2021/08/29 00:27:53;;;;;;;2.05;1.38;;;;;;;20.14;59.29;102099.69;5093491;28;20055;-66
2021/08/29 00:30:20;;;;;;;2.83;1.25;;;;;;;20.03;58.65;102103.50;5093680;28;20055;-66
2021/08/29 00:32:45;;;;;;;1.75;0.88;;;;;;;20.06;59.34;102103.19;5093523;28;20398;-67
2021/08/29 00:35:17;;;;;;;2.80;1.33;;;;;;;20.07;59.66;102099.47;5093084;28;20058;-66
2021/08/29 00:37:43;;;;;;;3.05;1.30;;;;;;;20.05;59.28;102101.47;5096393;28;20043;-66
2021/08/29 00:40:10;;;;;;;1.00;0.90;;;;;;;20.05;58.70;102101.47;5099536;28;20047;-66
2021/08/29 00:42:35;;;;;;;2.88;1.10;;;;;;;20.04;59.32;102097.03;5093195;28;20377;-66
2021/08/29 00:45:02;;;;;;;3.65;1.15;;;;;;;20.11;58.72;102100.88;5075113;28;20499;-66
2021/08/29 00:47:34;;;;;;;1.30;0.80;;;;;;;20.11;59.06;102100.88;5093175;28;20027;-66
2021/08/29 00:50:03;;;;;;;3.40;1.40;;;;;;;20.03;59.53;102111.69;5093313;28;20032;-65
2021/08/29 00:52:28;;;;;;;2.03;1.20;;;;;;;20.06;58.53;102100.47;5093380;28;20039;-66
2021/08/29 00:54:54;;;;;;;3.50;1.30;;;;;;;20.07;59.12;102099.47;5095118;28;20024;-66
2021/08/29 00:57:19;;;;;;;4.63;1.42;;;;;;;20.04;60.12;102104.38;5092881;28;20392;-66
2021/08/29 00:59:44;;;;;;;1.77;0.98;;;;;;;20.01;59.32;102100.09;5093303;28;20024;-66
2021/08/29 01:02:13;;;;;;;2.45;1.17;;;;;;;20.02;58.61;102104.53;5092826;28;20020;-65
2021/08/29 01:04:47;;;;;;;2.30;1.17;;;;;;;20.00;59.78;102103.81;5093248;28;20035;-67
2021/08/29 01:07:21;;;;;;;2.25;1.20;;;;;;;20.00;58.70;102095.63;5094935;28;20471;-65
2021/08/29 01:09:49;;;;;;;2.70;1.10;;;;;;;20.00;59.58;102098.38;5093040;28;20070;-66
2021/08/29 01:12:15;;;;;;;1.80;1.17;;;;;;;19.96;60.22;102096.94;5093069;28;20024;-66
2021/08/29 01:14:43;;;;;;;3.40;1.67;;;;;;;19.97;59.06;102103.25;5092991;28;20027;-66
2021/08/29 01:17:09;;;;;;;2.55;1.10;;;;;;;20.01;59.45;102100.09;5093122;28;20031;-67
2021/08/29 01:19:45;;;;;;;3.53;0.98;;;;;;;19.97;59.46;102098.63;5093048;28;20111;-67
2021/08/29 01:22:11;;;;;;;2.63;1.25;;;;;;;19.99;59.37;102099.38;5096041;28;20031;-67
2021/08/29 01:24:38;;;;;;;2.00;1.10;;;;;;;19.96;59.42;102099.66;5093149;28;20024;-67
2021/08/29 01:27:19;;;;;;;1.63;1.20;;;;;;;19.96;59.68;102107.84;5093167;28;20066;-67
2021/08/29 01:29:44;;;;;;;4.68;1.30;;;;;;;19.97;59.60;102092.31;5093084;28;20032;-66
2021/08/29 01:32:12;;;;;;;4.80;1.88;;;;;;;19.98;59.26;102083.97;5092971;28;20016;-67
2021/08/29 01:34:39;;;;;;;4.63;1.20;;;;;;;19.99;59.37;102085.72;5094544;28;20047;-66
2021/08/29 01:37:05;;;;;;;3.35;1.23;;;;;;;19.90;59.27;102086.63;5092931;28;20036;-67
2021/08/29 01:39:32;;;;;;;2.40;1.10;;;;;;;19.94;58.66;102084.44;5092977;28;20035;-67
2021/08/29 01:41:59;;;;;;;2.45;0.95;;;;;;;19.91;59.40;102088.34;5092756;28;20036;-67
2021/08/29 01:44:25;;;;;;;3.25;1.33;;;;;;;19.87;59.48;102081.47;5092923;28;20102;-67
2021/08/29 01:46:51;;;;;;;3.22;1.20;;;;;;;19.89;59.29;102092.25;5093076;28;20024;-67
2021/08/29 01:49:18;;;;;;;1.70;1.02;;;;;;;19.87;59.42;102084.22;5100559;28;20024;-67
2021/08/29 01:51:44;;;;;;;1.85;1.42;;;;;;;19.84;59.38;102087.25;5094246;28;20016;-66
2021/08/29 01:54:10;;;;;;;4.38;1.80;;;;;;;19.86;59.13;102089.81;5095163;28;20388;-67
2021/08/29 01:56:59;;;;;;;3.20;1.10;;;;;;;19.86;60.50;102090.69;5096251;28;20039;-67
2021/08/29 01:59:25;;;;;;;1.65;0.80;;;;;;;19.87;60.31;102086.94;5076173;28;20047;-67
2021/08/29 02:01:58;;;;;;;1.38;1.10;;;;;;;19.84;59.51;102089.97;5082611;28;20202;-66
2021/08/29 02:04:25;;;;;;;2.45;1.23;;;;;;;19.91;59.13;102085.63;5096384;28;20031;-67
2021/08/29 02:07:20;;;;;;;2.08;1.33;;;;;;;19.92;59.92;102084.59;5095956;28;20039;-68
2021/08/29 02:09:49;;;;;;;;;;;;;;;19.88;59.35;102080.47;4978712;28;20034;-67
2021/08/29 02:12:15;;;;;;;1.95;1.05;;;;;;;19.84;59.29;102070.88;4994233;28;20000;-67
2021/08/29 02:14:52;;;;;;;2.90;1.17;;;;;;;19.79;60.13;102068.56;4994493;28;20537;-68
2021/08/29 02:17:20;;;;;;;3.58;1.08;;;;;;;19.82;59.70;102078.34;5000595;28;20539;-67
2021/08/29 02:19:47;;;;;;;2.30;1.13;;;;;;;19.79;59.44;102076.75;4994364;28;20145;-68
2021/08/29 02:22:14;;;;;;;3.55;1.20;;;;;;;19.84;59.91;102076.31;4994236;28;20037;-68
2021/08/29 02:24:42;;;;;;;1.73;0.82;;;;;;;19.83;59.92;102077.34;4994055;28;20022;-67
2021/08/29 02:27:11;;;;;;;3.13;0.90;;;;;;;19.88;59.43;102083.19;4994030;28;20042;-67
2021/08/29 02:29:38;;;;;;;0.98;0.85;;;;;;;19.88;59.19;102075.00;4994842;28;20467;-67
2021/08/29 02:32:05;;;;;;;1.85;0.90;;;;;;;19.83;59.77;102077.34;4999857;28;20054;-66
2021/08/29 02:34:31;;;;;;;1.88;1.00;;;;;;;19.87;59.28;102080.63;4994177;28;20108;-67
2021/08/29 02:36:58;;;;;;;2.05;1.20;;;;;;;19.81;58.46;102076.59;4993770;28;20519;-67
2021/08/29 02:39:25;;;;;;;1.20;1.10;;;;;;;19.81;59.61;102082.06;4994010;28;20068;-67
2021/08/29 02:41:50;;;;;;;2.15;1.20;;;;;;;19.77;58.44;102080.66;4993548;28;20030;-67
2021/08/29 02:44:18;;;;;;;2.28;0.90;;;;;;;19.79;59.70;102078.63;4993593;28;20031;-67
2021/08/29 02:46:48;;;;;;;1.50;1.00;;;;;;;19.82;59.81;102078.34;5046700;28;20396;-66
2021/08/29 02:49:23;;;;;;;2.70;1.38;;;;;;;19.77;59.09;102075.19;5100949;28;20035;-66
2021/08/29 02:51:50;;;;;;;3.58;0.93;;;;;;;19.75;59.84;102079.94;5095490;28;20040;-67
2021/08/29 02:54:18;;;;;;;2.72;1.13;;;;;;;19.85;59.04;102080.78;5094159;28;20020;-67
2021/08/29 02:56:50;;;;;;;2.15;1.38;;;;;;;19.72;59.40;102077.53;5099489;28;20030;-67
2021/08/29 02:59:16;;;;;;;1.40;1.00;;;;;;;19.76;60.34;102085.25;5093254;28;20101;-67
2021/08/29 03:01:43;;;;;;;2.15;1.02;;;;;;;19.73;60.00;102079.25;5094811;28;20077;-67
2021/08/29 03:04:09;;;;;;;1.42;0.73;;;;;;;19.73;59.64;102080.09;5099897;28;20066;-67
2021/08/29 03:06:35;;;;;;;2.72;1.08;;;;;;;19.78;59.79;102076.91;5095170;28;20048;-67
2021/08/29 03:09:01;;;;;;;2.95;1.40;;;;;;;19.76;59.31;102078.94;5095102;28;20027;-67
2021/08/29 03:11:26;;;;;;;2.35;1.23;;;;;;;19.76;59.57;102076.22;5094932;28;20016;-68
2021/08/29 03:13:52;;;;;;;1.75;0.70;;;;;;;19.78;58.74;102080.50;5094815;28;20103;-67
2021/08/29 03:16:18;;;;;;;2.47;1.05;;;;;;;19.78;59.38;102079.63;5094874;28;20054;-67
2021/08/29 03:18:44;;;;;;;3.67;1.02;;;;;;;19.73;59.49;102079.25;5102402;28;20052;-67
2021/08/29 03:21:10;;;;;;;1.42;0.90;;;;;;;19.73;59.40;102079.25;5103366;28;20068;-67
2021/08/29 03:23:36;;;;;;;2.15;0.88;;;;;;;19.75;59.41;102078.06;5094690;28;20024;-67
2021/08/29 03:26:01;;;;;;;1.20;0.70;;;;;;;19.74;59.83;102078.22;5076703;28;20035;-67
2021/08/29 03:28:27;;;;;;;2.08;1.17;;;;;;;19.72;59.17;102078.38;5076497;28;20482;-66
2021/08/29 03:30:53;;;;;;;1.33;0.70;;;;;;;19.75;59.35;102082.69;5094519;28;20023;-68
2021/08/29 03:33:18;;;;;;;2.20;1.08;;;;;;;19.75;60.37;102088.13;5098084;28;20050;-65
2021/08/29 03:35:45;;;;;;;2.13;0.75;;;;;;;19.72;60.12;102085.72;5095099;28;20024;-66
2021/08/29 03:38:11;;;;;;;2.03;0.95;;;;;;;19.69;59.19;102077.84;5094581;28;20028;-66
2021/08/29 03:40:38;;;;;;;1.50;1.02;;;;;;;19.70;59.20;102074.94;5076427;28;20124;-67
2021/08/29 03:43:05;;;;;;;1.95;1.15;;;;;;;19.72;59.15;102082.97;5094322;28;20032;-65
2021/08/29 03:45:31;;;;;;;2.10;1.23;;;;;;;19.70;60.18;102074.09;5094096;28;20023;-66
2021/08/29 03:47:57;;;;;;;3.90;1.02;;;;;;;19.65;60.39;102071.81;5095292;28;20024;-66
2021/08/29 03:50:22;;;;;;;2.03;1.20;;;;;;;19.69;59.02;102084.16;5096324;28;20472;-65
2021/08/29 03:52:49;;;;;;;1.67;1.08;;;;;;;19.67;59.66;102085.31;5094294;28;20024;-66
2021/08/29 03:55:14;;;;;;;1.92;1.05;;;;;;;19.70;59.21;102080.41;5094499;28;20110;-66
2021/08/29 03:57:40;;;;;;;1.85;0.95;;;;;;;19.71;59.74;102076.66;5093715;28;20119;-65
2021/08/29 04:00:06;;;;;;;2.58;1.17;;;;;;;19.67;59.43;102085.31;5095487;28;20024;-65
2021/08/29 04:02:32;;;;;;;2.22;1.00;;;;;;;20.26;57.86;102081.22;5094826;28;20107;-66
2021/08/29 04:04:57;;;;;;;0.60;0.52;;;;;;;20.71;56.30;102079.34;5093982;28;20020;-66
2021/08/29 04:07:26;;;;;;;1.58;0.95;;;;;;;20.99;56.78;102081.94;5094173;28;20028;-65
2021/08/29 04:09:52;;;;;;;1.63;0.90;;;;;;;21.21;55.92;102084.16;5093543;28;20090;-66
2021/08/29 04:12:19;;;;;;;1.70;0.80;;;;;;;21.31;56.09;102079.47;5093730;28;20471;-67
2021/08/29 04:14:47;;;;;;;1.58;0.73;;;;;;;21.47;56.10;102080.59;5092247;28;20055;-66
2021/08/29 04:17:14;;;;;;;1.15;0.73;;;;;;;21.52;56.49;102086.44;5095669;28;20074;-66
2021/08/29 04:19:41;;;;;;;1.13;0.73;;;;;;;21.63;56.27;102088.88;5093801;28;20380;-66
2021/08/29 04:22:10;;;;;;;1.35;0.82;;;;;;;21.69;56.27;102088.25;5093674;28;20035;-67
2021/08/29 04:24:35;;;;;;;1.70;0.93;;;;;;;21.71;56.62;102091.69;5093623;28;20426;-67
2021/08/29 04:27:01;;;;;;;3.08;0.73;;;;;;;21.79;57.33;102083.50;5094913;28;20065;-66
2021/08/29 04:29:35;;;;;;;1.48;0.77;;;;;;;21.81;57.18;102086.91;5093717;28;20028;-67
2021/08/29 04:32:02;;;;;;;;;;;;;;;21.87;56.39;102080.81;5093702;28;20038;-66
2021/08/29 04:34:28;;;;;;;0.90;0.80;;;;;;;21.89;56.75;102083.38;5093762;28;20272;-66
2021/08/29 04:36:56;;;;;;;2.35;0.70;;;;;;;21.92;57.10;102083.03;5093487;28;20032;-67
2021/08/29 04:39:22;;;;;;;1.90;0.88;;;;;;;21.96;56.60;102083.56;5094481;28;20116;-67
2021/08/29 04:41:47;;;;;;;2.40;1.15;;;;;;;21.93;57.13;102074.66;5093176;28;20032;-66
2021/08/29 04:44:24;;;;;;;1.73;0.70;;;;;;;21.99;57.26;102080.47;5101474;28;20012;-66
2021/08/29 04:46:49;;;;;;;1.27;0.70;;;;;;;21.99;57.64;102078.59;5097838;28;20035;-66
2021/08/29 04:49:15;;;;;;;0.80;0.65;;;;;;;21.99;57.27;102080.47;5093381;28;20024;-67
2021/08/29 04:51:40;;;;;;;1.67;0.98;;;;;;;22.00;57.24;102076.72;5099346;28;20484;-67
2021/08/29 04:54:08;;;;;;;2.72;1.08;;;;;;;22.08;57.72;102076.78;5093337;28;20022;-67
2021/08/29 04:56:33;;;;;;;0.82;0.70;;;;;;;22.11;57.44;102076.44;5093218;28;20369;-66
2021/08/29 04:58:58;;;;;;;1.65;0.85;;;;;;;22.09;57.73;102078.50;5093011;28;20044;-67
2021/08/29 05:01:26;;;;;;;1.80;0.95;;;;;;;22.16;58.22;102071.31;5093068;28;20027;-67
2021/08/29 05:03:52;;;;;;;0.85;0.75;;;;;;;22.17;58.43;102079.41;5095643;28;20031;-67
2021/08/29 05:06:18;;;;;;;1.35;0.82;;;;;;;22.17;58.11;102076.66;5093128;28;20348;-67
2021/08/29 05:08:44;;;;;;;2.13;0.88;;;;;;;22.14;57.84;102074.22;5093334;28;20036;-66
2021/08/29 05:11:09;;;;;;;2.28;0.70;;;;;;;22.16;58.30;102079.53;5103603;28;20082;-68
2021/08/29 05:13:35;;;;;;;2.05;0.85;;;;;;;22.16;58.10;102082.28;5093257;28;20152;-67
2021/08/29 05:16:01;;;;;;;2.03;0.80;;;;;;;22.22;57.43;102078.91;5095333;28;20039;-66
2021/08/29 05:18:27;;;;;;;1.48;0.93;;;;;;;22.20;58.30;102075.47;5075383;28;20031;-66
2021/08/29 05:20:53;;;;;;;1.90;0.90;;;;;;;22.20;57.77;102081.81;5093112;28;20437;-67
2021/08/29 05:23:18;;;;;;;1.17;0.65;;;;;;;22.23;58.46;102077.88;5095842;28;20067;-66
2021/08/29 05:25:43;;;;;;;2.03;0.95;;;;;;;22.20;58.60;102075.47;5097066;28;20059;-66
2021/08/29 05:28:09;;;;;;;1.20;0.82;;;;;;;22.22;57.82;102078.91;5078737;28;20031;-67
2021/08/29 05:30:34;;;;;;;1.15;0.90;;;;;;;22.24;58.77;102085.06;5085940;28;20028;-68
2021/08/29 05:32:59;;;;;;;1.65;0.90;;;;;;;22.18;59.45;102077.53;5096750;28;20016;-68
2021/08/29 05:35:25;;;;;;;1.52;0.90;;;;;;;22.15;57.92;102072.34;5096851;28;20024;-69
2021/08/29 05:37:50;;;;;;;2.00;0.95;;;;;;;22.12;57.60;102073.53;5096401;28;20031;-68
2021/08/29 05:40:15;;;;;;;2.45;1.10;;;;;;;22.09;58.72;102086.72;5108194;28;20042;-67
2021/08/29 05:42:41;;;;;;;1.05;0.80;;;;;;;22.10;57.29;102081.06;5078366;28;20500;-68
2021/08/29 05:45:06;;;;;;;1.88;0.80;;;;;;;22.10;57.71;102080.22;5097971;28;20031;-67
2021/08/29 05:47:32;;;;;;;2.40;1.35;;;;;;;22.06;57.48;102081.59;5097854;28;20111;-67
2021/08/29 05:49:57;;;;;;;1.25;0.80;;;;;;;22.05;57.94;102079.88;5096268;28;20047;-68
2021/08/29 05:52:22;;;;;;;1.33;0.90;;;;;;;22.09;57.26;102078.50;5096414;28;20021;-68
2021/08/29 05:54:47;;;;;;;2.25;0.90;;;;;;;22.02;57.71;102078.28;5096661;28;20482;-68
2021/08/29 05:57:13;;;;;;;1.60;0.65;;;;;;;22.07;58.45;102069.59;5096034;28;20024;-67
2021/08/29 05:59:38;;;;;;;1.38;0.70;;;;;;;22.07;57.62;102075.06;5096559;28;20081;-68
2021/08/29 06:02:03;;;;;;;2.08;0.70;;;;;;;22.12;57.46;102078.16;5096050;28;20027;-67
2021/08/29 06:04:30;;;;;;;2.97;0.95;;;;;;;22.06;58.38;102079.69;5096102;28;20024;-67
2021/08/29 06:06:55;;;;;;;3.88;0.90;;;;;;;22.08;57.53;102076.78;5096231;28;20039;-68
2021/08/29 06:09:20;;;;;;;2.33;1.10;;;;;;;22.03;56.97;102069.06;5116526;28;20038;-66
2021/08/29 06:11:46;;;;;;;1.75;0.85;;;;;;;22.09;58.07;102079.38;5105628;28;20027;-70
2021/08/29 06:14:11;;;;;;;0.70;0.60;;;;;;;22.03;57.86;102084.63;5098969;28;20376;-67
2021/08/29 06:16:37;;;;;;;1.35;0.73;;;;;;;22.06;56.81;102078.84;5096181;28;20032;-68
2021/08/29 06:19:02;;;;;;;3.08;1.10;;;;;;;22.00;57.58;102080.31;5095928;28;20030;-68
2021/08/29 06:21:27;;;;;;;3.33;0.93;;;;;;;22.02;58.03;102088.38;5095834;28;20028;-68
2021/08/29 06:23:55;;;;;;;0.95;0.82;;;;;;;22.03;57.83;102084.63;5095721;28;20028;-68
2021/08/29 06:26:21;;;;;;;2.50;1.20;;;;;;;22.07;57.82;102086.03;5095903;28;20097;-67
2021/08/29 06:28:46;;;;;;;1.98;0.90;;;;;;;22.07;57.70;102088.78;5097779;28;20023;-68
2021/08/29 06:31:12;;;;;;;1.10;0.80;;;;;;;22.01;58.28;102092.16;5077743;28;20111;-67
2021/08/29 06:33:37;;;;;;;1.40;0.88;;;;;;;22.02;58.42;102088.38;5095071;28;20431;-67
2021/08/29 06:36:03;;;;;;;2.45;0.90;;;;;;;22.11;58.09;102096.47;5096308;28;20028;-67
2021/08/29 06:38:28;;;;;;;1.13;0.63;;;;;;;22.10;57.99;102085.69;5095380;28;20438;-68
2021/08/29 06:40:54;;;;;;;1.38;0.88;;;;;;;22.03;57.81;102092.84;5079666;28;20503;-67
2021/08/29 06:43:19;;;;;;;2.10;1.23;;;;;;;22.05;58.46;102077.13;5095400;28;20477;-68
2021/08/29 06:45:44;;;;;;;4.28;1.08;;;;;;;22.00;58.00;102082.19;5095169;28;20020;-68
2021/08/29 06:48:10;;;;;;;2.05;1.10;;;;;;;22.07;59.33;102080.56;5095258;28;20381;-67
2021/08/29 06:50:35;;;;;;;2.58;1.10;;;;;;;22.06;58.08;102087.06;5095250;28;20673;-68
2021/08/29 06:53:00;;;;;;;1.60;0.68;;;;;;;22.01;58.78;102075.72;5094932;28;20021;-68
2021/08/29 06:55:26;;;;;;;2.80;1.00;;;;;;;22.09;57.91;102079.38;5097871;28;20024;-68
2021/08/29 06:57:51;;;;;;;1.27;0.88;;;;;;;22.04;58.58;102072.66;5099624;28;20084;-67
2021/08/29 07:00:17;;;;;;;1.15;0.50;;;;;;;22.01;58.53;102070.25;5096341;28;20035;-68
2021/08/29 07:02:42;;;;;;;1.23;0.82;;;;;;;22.09;58.70;102083.97;5094765;28;20078;-68
2021/08/29 07:05:09;;;;;;;2.70;0.90;;;;;;;22.11;58.69;102073.72;5095127;28;20035;-68
2021/08/29 07:07:34;;;;;;;2.00;0.98;;;;;;;22.13;59.20;102085.34;5096331;28;20070;-69
2021/08/29 07:09:59;;;;;;;0.77;0.70;;;;;;;22.11;59.21;102076.44;5076881;28;20621;-69
2021/08/29 07:12:25;;;;;;;1.25;0.80;;;;;;;22.09;58.69;102073.03;5094807;28;20062;-68
2021/08/29 07:14:50;;;;;;;1.15;0.50;;;;;;;22.10;58.67;102080.22;5094959;28;20028;-68
2021/08/29 07:17:18;;;;;;;2.08;0.57;;;;;;;22.09;58.93;102073.03;5094570;28;20024;-69
2021/08/29 07:19:44;;;;;;;1.10;0.70;;;;;;;22.13;58.67;102074.41;5094686;28;20111;-68
2021/08/29 07:22:09;;;;;;;3.17;0.90;;;;;;;22.06;58.98;102074.22;5096487;28;20046;-68
2021/08/29 07:24:35;;;;;;;0.95;0.65;;;;;;;22.05;58.49;102079.88;5098377;28;20399;-68
2021/08/29 07:27:00;;;;;;;1.60;0.93;;;;;;;22.05;59.50;102088.94;5094586;28;20452;-68
2021/08/29 07:29:25;;;;;;;1.33;0.50;;;;;;;22.09;58.40;102083.97;5094576;28;20061;-69
2021/08/29 07:31:51;;;;;;;2.78;0.75;;;;;;;22.13;58.77;102078.00;5094308;28;20024;-68
2021/08/29 07:34:16;;;;;;;0.93;0.60;;;;;;;22.08;58.84;102083.13;5094470;28;20068;-69
2021/08/29 07:36:41;;;;;;;1.67;0.80;;;;;;;22.05;57.88;102082.59;5094856;28;20024;-68
2021/08/29 07:39:07;;;;;;;1.55;0.63;;;;;;;22.09;58.09;102067.56;5094150;28;20016;-68
2021/08/29 07:41:32;;;;;;;0.68;0.38;;;;;;;22.13;58.90;102075.25;5094220;28;20072;-69
2021/08/29 07:43:57;;;;;;;1.90;0.77;;;;;;;22.13;58.76;102068.91;5093913;28;20495;-68
2021/08/29 07:46:26;;;;;;;1.15;0.70;;;;;;;22.14;58.38;102076.13;5093621;28;20385;-68
2021/08/29 07:48:51;;;;;;;2.08;0.68;;;;;;;22.11;59.50;102074.56;5095422;28;20032;-68
2021/08/29 07:51:17;;;;;;;1.15;0.60;;;;;;;22.05;58.79;102082.59;5103321;28;20488;-68
2021/08/29 07:53:42;;;;;;;2.15;0.50;;;;;;;22.11;59.34;102087.41;5094010;28;20031;-68
2021/08/29 07:56:07;;;;;;;1.17;0.45;;;;;;;22.06;58.17;102084.31;5093823;28;20040;-69
2021/08/29 07:58:33;;;;;;;1.35;0.50;;;;;;;22.10;59.14;102091.19;5094034;28;20055;-68
2021/08/29 08:00:58;;;;;;;0.82;0.47;;;;;;;22.11;58.15;102081.94;5093562;28;20036;-69
2021/08/29 08:03:23;;;;;;;2.40;0.50;;;;;;;22.10;59.30;102086.56;5096651;28;20483;-68
2021/08/29 08:05:49;;;;;;;1.30;0.70;;;;;;;22.10;58.48;102080.22;5093789;28;20030;-68
2021/08/29 08:08:14;;;;;;;1.88;0.60;;;;;;;22.11;58.96;102084.66;5093888;28;20024;-68
2021/08/29 08:10:39;;;;;;;0.82;0.50;;;;;;;22.10;58.27;102085.69;5076003;28;20016;-68
2021/08/29 08:13:05;;;;;;;0.77;0.35;;;;;;;22.15;59.40;102083.31;5093568;28;20020;-68
2021/08/29 08:15:30;;;;;;;1.35;0.52;;;;;;;22.07;58.29;102086.03;5094974;28;20035;-69
2021/08/29 08:17:55;;;;;;;1.75;0.60;;;;;;;22.01;59.14;102086.69;5093557;28;20031;-69
2021/08/29 08:20:21;;;;;;;1.25;0.25;;;;;;;22.08;59.29;102079.53;5105122;28;20004;-67
2021/08/29 08:22:47;;;;;;;1.27;0.60;;;;;;;22.12;59.00;102084.50;5099187;28;20445;-67
2021/08/29 08:25:19;;;;;;;0.82;0.45;;;;;;;22.16;58.25;102074.06;5095011;28;20488;-69
2021/08/29 08:27:45;;;;;;;1.17;0.60;;;;;;;22.14;58.44;102073.38;5093551;28;20030;-69
2021/08/29 08:30:11;;;;;;;2.03;0.52;;;;;;;22.08;59.15;102085.88;5093480;28;20016;-68
2021/08/29 08:32:37;;;;;;;1.10;0.40;;;;;;;22.11;58.59;102087.41;5093616;28;20024;-68
2021/08/29 08:35:04;;;;;;;0.65;0.40;;;;;;;22.11;59.75;102082.78;5093339;28;20093;-69
2021/08/29 08:37:29;;;;;;;4.53;1.17;;;;;;;22.11;59.94;102081.94;5093163;28;20032;-68
2021/08/29 08:39:55;;;;;;;0.20;0.20;;;;;;;22.09;57.79;102068.41;5095820;28;20020;-68
2021/08/29 08:42:20;;;;;;;0.70;0.40;;;;;;;22.11;59.40;102070.97;5093508;28;20069;-69
2021/08/29 08:44:47;;;;;;;2.63;0.80;;;;;;;22.08;59.40;102071.31;5093417;28;20023;-68
2021/08/29 08:47:18;;;;;;;0.93;0.45;;;;;;;22.10;58.80;102082.97;5093405;28;20027;-68
2021/08/29 08:49:45;;;;;;;1.08;0.63;;;;;;;22.14;58.49;102082.44;5093877;28;20034;-68
2021/08/29 08:52:37;;;;;;;0.57;0.32;;;;;;;22.12;58.64;102079.03;5094714;28;20020;-68
2021/08/29 08:55:03;;;;;;;0.80;0.30;;;;;;;22.14;59.26;102087.06;5088913;28;20039;-69
2021/08/29 08:57:29;;;;;;;1.63;0.30;;;;;;;22.12;59.60;102083.66;5095936;28;20153;-68
2021/08/29 08:59:54;;;;;;;1.70;0.28;;;;;;;22.09;58.54;102083.97;5097384;28;20016;-68
2021/08/29 09:02:21;;;;;;;0.77;0.20;;;;;;;22.13;58.60;102093.56;5097321;28;20020;-69
2021/08/29 09:04:47;;;;;;;1.75;0.40;;;;;;;22.11;58.40;102096.47;5097068;28;20035;-68
2021/08/29 09:07:13;;;;;;;0.70;0.20;;;;;;;22.14;58.67;102095.28;5097302;28;20024;-68
2021/08/29 09:09:39;;;;;;;1.63;0.47;;;;;;;22.11;59.41;102098.38;5097287;28;20413;-69
2021/08/29 09:12:05;;;;;;;0.82;0.30;;;;;;;22.10;58.92;102107.59;5097123;28;20024;-68
2021/08/29 09:14:38;;;;;;;0.93;0.38;;;;;;;22.12;59.47;102100.06;5081228;28;20039;-68
2021/08/29 09:17:40;;;;;;;0.80;0.30;;;;;;;22.18;59.45;102099.44;5097104;28;20477;-69
2021/08/29 09:20:27;;;;;;;0.82;0.40;;;;;;;22.09;59.11;102100.41;5096323;28;20028;-69
2021/08/29 09:22:59;;;;;;;2.15;0.75;;;;;;;22.15;58.65;102105.22;5097963;28;20111;-69
2021/08/29 09:25:29;;;;;;;0.95;0.30;;;;;;;22.21;59.69;102110.06;5096959;28;20027;-68
2021/08/29 09:27:59;;;;;;;0.68;0.22;;;;;;;22.19;58.16;102095.66;5096869;28;20023;-69
2021/08/29 09:30:27;;;;;;;0.40;0.30;;;;;;;22.10;58.90;102092.03;5096788;28;20372;-69
2021/08/29 09:33:01;;;;;;;1.55;0.40;;;;;;;22.12;58.89;102097.34;5096776;28;20027;-68
2021/08/29 09:35:27;;;;;;;;;;;;;;;22.13;59.23;102096.31;5097090;28;20024;-69
2021/08/29 09:37:55;;;;;;;2.95;0.63;;;;;;;22.14;58.91;102098.03;5097024;28;19956;-69
2021/08/29 09:40:32;;;;;;;1.65;0.50;;;;;;;22.20;59.01;102105.59;5096760;28;20020;-68
2021/08/29 09:42:59;;;;;;;2.42;0.73;;;;;;;22.20;58.79;102103.72;5096459;28;20024;-68
2021/08/29 09:45:28;;;;;;;0.70;0.30;;;;;;;22.15;59.50;102106.06;5101133;28;20004;-68
2021/08/29 09:48:02;;;;;;;0.88;0.30;;;;;;;22.14;58.82;102098.03;5099421;28;20020;-68
2021/08/29 09:50:28;;;;;;;1.73;0.40;;;;;;;22.17;59.90;102097.69;5096616;28;20028;-68
2021/08/29 09:53:08;;;;;;;2.33;0.70;;;;;;;22.18;59.68;102091.22;5096223;28;20099;-69
2021/08/29 09:55:36;;;;;;;1.98;0.50;;;;;;;22.20;59.92;102098.25;5096592;28;20024;-69
2021/08/29 09:58:26;;;;;;;2.53;0.60;;;;;;;22.17;59.93;102097.69;5095735;28;20044;-69
2021/08/29 10:01:12;;;;;;;1.05;0.60;;;;;;;22.14;59.53;102106.25;5096434;28;20134;-68
2021/08/29 10:03:41;;;;;;;0.63;0.30;;;;;;;22.15;59.98;102105.22;5078291;28;20049;-69
2021/08/29 10:06:27;;;;;;;1.55;0.32;;;;;;;22.22;59.48;102106.28;5096208;28;20038;-69
2021/08/29 10:08:55;;;;;;;0.85;0.22;;;;;;;22.19;59.12;102095.66;5095246;28;20051;-69
2021/08/29 10:11:22;;;;;;;0.47;0.20;;;;;;;22.22;59.37;102095.31;5096101;28;20027;-68
2021/08/29 10:13:49;;;;;;;2.03;0.45;;;;;;;22.19;58.60;102096.53;5095730;28;20028;-68
2021/08/29 10:16:16;;;;;;;1.27;0.10;;;;;;;22.15;58.73;102092.38;5098209;28;20070;-68
2021/08/29 10:18:47;;;;;;;1.00;0.38;;;;;;;22.16;59.47;102095.97;5099817;28;20532;-68
2021/08/29 10:21:14;;;;;;;1.25;0.30;;;;;;;22.17;59.13;102092.22;5078038;28;20357;-69
2021/08/29 10:23:42;;;;;;;0.43;0.20;;;;;;;22.18;58.60;102093.94;5095603;28;20074;-69
2021/08/29 10:26:13;;;;;;;2.45;0.60;;;;;;;22.19;60.04;102095.66;5095977;28;20097;-68
2021/08/29 10:28:43;;;;;;;2.47;0.50;;;;;;;22.20;59.42;102089.16;5095589;28;20061;-68
2021/08/29 10:31:15;;;;;;;1.45;0.22;;;;;;;22.18;59.23;102088.47;5095740;28;20023;-69
2021/08/29 10:33:47;;;;;;;1.42;0.50;;;;;;;22.15;59.62;102080.56;5077232;28;20024;-69
2021/08/29 10:36:18;;;;;;;1.67;0.60;;;;;;;22.20;58.72;102083.69;5095750;28;20051;-69
2021/08/29 10:38:46;;;;;;;1.80;0.50;;;;;;;22.19;59.89;102084.72;5095357;28;20028;-69
2021/08/29 10:41:11;;;;;;;1.20;0.50;;;;;;;22.18;58.92;102077.53;5095541;28;20028;-68
2021/08/29 10:43:39;;;;;;;1.77;0.50;;;;;;;22.16;59.75;102093.25;5096268;28;20185;-68
2021/08/29 10:46:07;;;;;;;2.78;0.65;;;;;;;22.20;58.41;102076.31;5095299;28;20018;-68
2021/08/29 10:48:35;;;;;;;1.13;0.40;;;;;;;22.17;58.55;102093.09;5100667;28;20039;-66
2021/08/29 10:51:01;;;;;;;2.75;0.60;;;;;;;22.20;59.45;102081.81;5119922;28;20020;-67
2021/08/29 10:53:35;;;;;;;0.60;0.40;;;;;;;22.21;59.20;102078.03;5103198;28;20032;-69
2021/08/29 10:56:15;;;;;;;1.50;0.30;;;;;;;22.19;58.68;102079.22;5095785;28;20028;-68
2021/08/29 10:58:46;;;;;;;0.75;0.57;;;;;;;22.19;58.85;102077.34;5094899;28;20052;-68
2021/08/29 11:01:45;;;;;;;2.13;0.70;;;;;;;22.17;59.38;102082.13;5095241;28;20069;-68
2021/08/29 11:04:25;;;;;;;1.15;0.35;;;;;;;22.19;59.82;102081.97;5012553;28;20042;-68
2021/08/29 11:06:54;;;;;;;0.95;0.50;;;;;;;22.18;59.45;102083.84;5014747;28;20037;-69
2021/08/29 11:09:34;;;;;;;2.38;0.77;;;;;;;22.22;60.77;102078.91;5013605;28;20026;-67
2021/08/29 11:12:03;;;;;;;1.85;0.30;;;;;;;22.21;59.80;102071.69;5012959;28;20101;-67
2021/08/29 11:15:24;;;;;;;1.55;0.40;;;;;;;22.21;59.88;102071.69;5012839;28;20481;-67
2021/08/29 11:18:02;;;;;;;2.38;0.70;;;;;;;22.25;59.85;102083.19;5016283;28;20077;-67
2021/08/29 11:20:32;;;;;;;0.77;0.43;;;;;;;22.23;60.07;102080.59;5012558;28;20491;-66
2021/08/29 11:22:58;;;;;;;1.00;0.30;;;;;;;22.28;59.76;102080.94;5015168;28;20084;-67
2021/08/29 11:25:24;;;;;;;1.75;0.50;;;;;;;22.20;59.39;102080.94;4996328;28;20433;-67
2021/08/29 11:27:55;;;;;;;0.95;0.30;;;;;;;22.16;59.20;102074.06;5012416;28;20486;-67
2021/08/29 11:30:23;;;;;;;0.50;0.30;;;;;;;22.16;58.79;102079.53;5012556;28;20034;-68